createdAt,value
2023-01-29T00:02:00.319Z,3.50
2023-01-29T00:04:28.325Z,3.50
2023-01-29T00:06:57.597Z,4.43
2023-01-29T00:09:25.613Z,4.53
2023-01-29T00:11:53.486Z,3.83
2023-01-29T00:14:21.503Z,4.40
2023-01-29T00:16:49.370Z,4.40
2023-01-29T00:19:17.574Z,3.97
2023-01-29T00:21:45.620Z,3.70
2023-01-29T00:24:15.037Z,3.23
2023-01-29T00:26:43.270Z,4.10
2023-01-29T00:29:11.573Z,4.40
2023-01-29T00:31:40.812Z,4.00
2023-01-29T00:34:08.655Z,4.63
2023-01-29T00:36:36.587Z,3.63
2023-01-29T00:39:10.807Z,3.70
2023-01-29T00:41:57.957Z,3.13
2023-01-29T00:44:43.376Z,4.40
2023-01-29T00:47:30.899Z,4.10
2023-01-29T00:49:59.271Z,4.33
2023-01-29T00:52:27.288Z,4.30
2023-01-29T00:54:56.741Z,3.37
2023-01-29T00:57:27.752Z,3.60
2023-01-29T00:59:55.981Z,3.87
2023-01-29T01:02:42.261Z,4.57
2023-01-29T01:05:17.952Z,4.03
2023-01-29T01:07:46.519Z,4.17
2023-01-29T01:10:21.835Z,4.37
2023-01-29T01:12:54.816Z,4.00
2023-01-29T01:15:23.765Z,4.43
2023-01-29T01:17:54.475Z,3.63
2023-01-29T01:20:22.687Z,2.77
2023-01-29T01:22:51.044Z,3.53
2023-01-29T01:25:19.092Z,2.53
2023-01-29T01:27:47.159Z,2.80
2023-01-29T01:30:17.936Z,3.93
2023-01-29T01:32:46.029Z,2.40
2023-01-29T01:35:14.858Z,3.40
2023-01-29T01:37:43.517Z,2.90
2023-01-29T01:40:18.526Z,3.43
2023-01-29T01:42:49.376Z,3.73
2023-01-29T01:45:25.967Z,3.50
2023-01-29T01:47:58.594Z,3.50
2023-01-29T01:50:30.919Z,3.83
2023-01-29T01:53:03.453Z,3.63
2023-01-29T01:55:35.097Z,3.00
2023-01-29T01:58:09.964Z,4.03
2023-01-29T02:00:40.698Z,3.30
2023-01-29T02:03:27.537Z,3.17
2023-01-29T02:06:15.359Z,2.97
2023-01-29T02:09:09.015Z,3.40
2023-01-29T02:11:37.358Z,4.00
2023-01-29T02:14:05.641Z,3.20
2023-01-29T02:16:36.720Z,3.30
2023-01-29T02:19:08.427Z,4.13
2023-01-29T02:22:00.941Z,3.70
2023-01-29T02:25:00.135Z,4.13
2023-01-29T02:27:37.117Z,3.40
2023-01-29T02:30:10.677Z,4.13
2023-01-29T02:32:58.678Z,4.27
2023-01-29T02:35:32.163Z,3.20
2023-01-29T02:38:12.937Z,3.73
2023-01-29T02:40:46.730Z,4.00
2023-01-29T02:43:28.608Z,3.93
2023-01-29T02:46:04.263Z,3.93
2023-01-29T02:48:41.723Z,3.33
2023-01-29T02:51:15.293Z,3.60
2023-01-29T02:53:53.792Z,4.20
2023-01-29T02:56:25.473Z,3.43
2023-01-29T02:58:58.495Z,4.10
2023-01-29T03:01:33.160Z,3.77
2023-01-29T03:04:05.172Z,4.00
2023-01-29T03:06:36.483Z,3.87
2023-01-29T03:09:10.214Z,3.60
2023-01-29T03:11:42.402Z,4.17
2023-01-29T03:14:14.394Z,4.30
2023-01-29T03:16:48.779Z,4.20
2023-01-29T03:19:20.405Z,4.37
2023-01-29T03:21:59.221Z,4.23
2023-01-29T03:25:02.554Z,4.20
2023-01-29T03:27:54.947Z,3.50
2023-01-29T03:30:44.587Z,3.40
2023-01-29T03:33:17.294Z,3.80
2023-01-29T03:35:53.137Z,3.90
2023-01-29T03:38:21.579Z,3.50
2023-01-29T03:40:57.626Z,3.87
2023-01-29T03:43:33.685Z,3.43
2023-01-29T03:46:08.462Z,3.33
2023-01-29T03:48:42.763Z,2.83
2023-01-29T03:51:23.483Z,2.17
2023-01-29T03:53:55.144Z,3.20
2023-01-29T03:56:40.626Z,3.03
2023-01-29T03:59:18.167Z,2.83
2023-01-29T04:01:49.994Z,3.17
2023-01-29T04:04:25.525Z,3.10
2023-01-29T04:06:57.701Z,3.10
2023-01-29T04:09:31.259Z,2.90
2023-01-29T04:12:05.284Z,3.37
2023-01-29T04:14:33.929Z,2.83
2023-01-29T04:17:07.223Z,3.40
2023-01-29T04:19:37.367Z,3.43
2023-01-29T04:22:08.833Z,3.10
2023-01-29T04:24:36.778Z,3.20
2023-01-29T04:27:21.886Z,3.00
2023-01-29T04:30:05.709Z,3.10
2023-01-29T04:32:48.827Z,3.40
2023-01-29T04:35:30.755Z,2.37
2023-01-29T04:38:09.482Z,2.70
2023-01-29T04:40:47.431Z,3.27
2023-01-29T04:43:22.409Z,2.40
2023-01-29T04:46:05.043Z,3.10
2023-01-29T04:48:42.424Z,2.87
2023-01-29T04:51:19.044Z,2.90
2023-01-29T04:53:52.609Z,3.00
2023-01-29T04:56:26.488Z,3.20
2023-01-29T04:59:00.602Z,5.40
2023-01-29T05:01:33.229Z,4.07
2023-01-29T05:04:04.497Z,3.17
2023-01-29T05:06:34.507Z,2.27
2023-01-29T05:09:03.679Z,4.27
2023-01-29T05:11:33.602Z,3.03
2023-01-29T05:14:06.017Z,3.77
2023-01-29T05:16:42.165Z,2.70
2023-01-29T05:19:13.245Z,4.80
2023-01-29T05:21:47.245Z,4.40
2023-01-29T05:24:18.004Z,5.97
2023-01-29T05:27:06.430Z,2.80
2023-01-29T05:29:34.444Z,2.57
2023-01-29T05:32:02.456Z,4.60
2023-01-29T05:34:30.406Z,2.90
2023-01-29T05:36:59.668Z,5.30
2023-01-29T05:39:27.530Z,2.47
2023-01-29T05:41:55.514Z,3.10
2023-01-29T05:44:23.394Z,3.40
2023-01-29T05:46:51.881Z,3.23
2023-01-29T05:49:20.725Z,3.10
2023-01-29T05:51:48.588Z,3.10
2023-01-29T05:54:17.894Z,3.07
2023-01-29T05:56:45.749Z,3.17
2023-01-29T05:59:13.680Z,4.43
2023-01-29T06:01:42.055Z,2.73
2023-01-29T06:04:10.180Z,3.37
2023-01-29T06:06:38.046Z,3.00
2023-01-29T06:09:05.937Z,3.47
2023-01-29T06:11:35.655Z,3.17
2023-01-29T06:14:03.969Z,3.53
2023-01-29T06:16:32.155Z,3.57
2023-01-29T06:19:00.408Z,2.40
2023-01-29T06:21:28.567Z,2.70
2023-01-29T06:23:56.711Z,4.90
2023-01-29T06:26:24.654Z,3.70
2023-01-29T06:28:54.167Z,2.60
2023-01-29T06:31:38.678Z,3.07
2023-01-29T06:34:10.449Z,3.13
2023-01-29T06:36:39.202Z,3.53
2023-01-29T06:39:07.141Z,4.30
2023-01-29T06:41:37.429Z,3.90
2023-01-29T06:44:07.132Z,3.97
2023-01-29T06:46:37.089Z,4.00
2023-01-29T06:49:05.247Z,3.17
2023-01-29T06:51:33.202Z,4.10
2023-01-29T06:54:06.513Z,5.20
2023-01-29T06:56:34.420Z,4.17
2023-01-29T06:59:04.188Z,4.30
2023-01-29T07:01:36.458Z,3.60
2023-01-29T07:04:05.237Z,3.80
2023-01-29T07:06:33.603Z,3.97
2023-01-29T07:09:01.654Z,3.70
2023-01-29T07:11:29.661Z,4.00
2023-01-29T07:13:57.767Z,4.50
2023-01-29T07:16:26.414Z,4.30
2023-01-29T07:18:55.893Z,3.90
2023-01-29T07:21:23.893Z,3.40
2023-01-29T07:23:52.086Z,3.87
2023-01-29T07:26:21.528Z,3.70
2023-01-29T07:28:49.394Z,4.57
2023-01-29T07:31:17.386Z,4.70
2023-01-29T07:33:45.481Z,4.40
2023-01-29T07:36:15.467Z,3.70
2023-01-29T07:38:50.051Z,4.60
2023-01-29T07:41:17.955Z,9.23
2023-01-29T07:43:46.069Z,7.10
2023-01-29T07:46:13.956Z,5.63
2023-01-29T07:48:41.924Z,6.50
2023-01-29T07:51:09.769Z,5.00
2023-01-29T07:53:39.008Z,5.80
2023-01-29T07:56:09.877Z,5.57
2023-01-29T07:58:40.784Z,5.30
2023-01-29T08:01:09.334Z,6.03
2023-01-29T08:03:37.776Z,7.57
2023-01-29T08:06:06.331Z,5.70
2023-01-29T08:08:34.238Z,5.17
2023-01-29T08:11:05.558Z,5.87
2023-01-29T08:13:33.936Z,4.70
2023-01-29T08:16:02.342Z,5.50
2023-01-29T08:18:31.561Z,4.83
2023-01-29T08:21:03.329Z,7.73
2023-01-29T08:23:31.525Z,5.63
2023-01-29T08:26:02.166Z,5.67
2023-01-29T08:28:31.528Z,5.00
2023-01-29T08:30:59.786Z,6.03
2023-01-29T08:33:38.393Z,5.40
2023-01-29T08:36:08.522Z,4.77
2023-01-29T08:38:36.949Z,5.80
2023-01-29T08:41:12.519Z,5.07
2023-01-29T08:43:41.782Z,5.30
2023-01-29T08:46:09.845Z,5.20
2023-01-29T08:48:37.861Z,5.10
2023-01-29T08:51:06.006Z,4.53
2023-01-29T08:53:34.460Z,5.00
2023-01-29T08:56:02.782Z,4.00
2023-01-29T08:58:30.682Z,5.17
2023-01-29T09:01:07.310Z,5.20
2023-01-29T09:03:35.206Z,4.00
2023-01-29T09:06:03.190Z,5.67
2023-01-29T09:08:31.150Z,3.90
2023-01-29T09:11:01.220Z,3.73
2023-01-29T09:13:32.132Z,5.07
2023-01-29T09:16:02.158Z,4.33
2023-01-29T09:18:30.941Z,4.20
2023-01-29T09:20:59.132Z,4.87
2023-01-29T09:23:27.038Z,5.30
2023-01-29T09:25:54.909Z,5.77
2023-01-29T09:28:23.161Z,5.10
2023-01-29T09:30:51.281Z,4.67
2023-01-29T09:33:20.966Z,5.10
2023-01-29T09:35:48.870Z,4.30
2023-01-29T09:38:16.773Z,4.83
2023-01-29T09:40:54.712Z,5.40
2023-01-29T09:43:33.108Z,4.27
2023-01-29T09:46:07.525Z,4.03
2023-01-29T09:48:37.840Z,4.40
2023-01-29T09:51:14.787Z,4.97
2023-01-29T09:53:50.050Z,5.47
2023-01-29T09:56:22.058Z,4.97
2023-01-29T09:58:50.207Z,4.97
2023-01-29T10:01:25.355Z,5.40
2023-01-29T10:04:32.267Z,5.40
2023-01-29T10:07:16.199Z,5.20
2023-01-29T10:10:02.870Z,5.20
2023-01-29T10:12:51.720Z,4.60
2023-01-29T10:15:29.604Z,4.80
2023-01-29T10:18:23.420Z,4.70
2023-01-29T10:21:04.603Z,4.93
2023-01-29T10:23:35.897Z,4.67
2023-01-29T10:26:04.274Z,5.43
2023-01-29T10:28:39.703Z,5.17
2023-01-29T10:31:14.023Z,5.23
2023-01-29T10:33:49.571Z,6.50
2023-01-29T10:36:35.538Z,5.73
2023-01-29T10:39:03.528Z,6.77
2023-01-29T10:41:52.543Z,5.57
2023-01-29T10:44:34.707Z,6.00
2023-01-29T10:47:18.803Z,6.27
2023-01-29T10:50:02.100Z,6.40
2023-01-29T10:52:41.280Z,5.10
2023-01-29T10:55:26.562Z,5.90
2023-01-29T10:58:06.972Z,6.57
2023-01-29T11:00:38.564Z,6.00
2023-01-29T11:03:27.096Z,5.87
2023-01-29T11:06:04.093Z,5.53
2023-01-29T11:08:41.354Z,6.43
2023-01-29T11:11:13.996Z,6.40
2023-01-29T11:13:46.765Z,5.57
2023-01-29T11:16:14.944Z,6.40
2023-01-29T11:18:55.551Z,5.13
2023-01-29T11:21:24.604Z,6.67
2023-01-29T11:24:07.552Z,5.80
2023-01-29T11:26:40.160Z,5.70
2023-01-29T11:29:33.114Z,6.70
2023-01-29T11:32:04.390Z,5.27
2023-01-29T11:34:32.696Z,6.67
2023-01-29T11:37:02.679Z,7.23
2023-01-29T11:39:33.761Z,6.37
2023-01-29T11:42:03.749Z,7.03
2023-01-29T11:44:34.372Z,5.47
2023-01-29T11:47:13.609Z,6.57
2023-01-29T11:49:46.749Z,6.70
2023-01-29T11:52:16.936Z,6.80
2023-01-29T11:54:50.683Z,5.60
2023-01-29T11:57:26.326Z,6.00
2023-01-29T11:59:56.641Z,4.70
2023-01-29T12:02:35.553Z,5.90
2023-01-29T12:05:07.948Z,5.50
2023-01-29T12:07:42.243Z,4.27
2023-01-29T12:10:31.991Z,5.83
2023-01-29T12:13:06.246Z,6.33
2023-01-29T12:15:34.436Z,5.33
2023-01-29T12:18:09.467Z,6.00
2023-01-29T12:20:42.328Z,5.90
2023-01-29T12:23:25.071Z,4.20
2023-01-29T12:26:00.338Z,5.93
2023-01-29T12:37:28.795Z,5.00
2023-01-29T12:40:13.847Z,5.07
2023-01-29T12:42:49.579Z,5.33
2023-01-29T12:45:20.732Z,5.47
2023-01-29T12:47:54.047Z,4.70
2023-01-29T12:50:25.608Z,5.80
2023-01-29T12:52:57.816Z,5.20
2023-01-29T12:55:35.319Z,6.03
2023-01-29T12:58:15.669Z,5.60
2023-01-29T13:00:47.114Z,5.53
2023-01-29T13:03:22.599Z,6.13
2023-01-29T13:05:55.235Z,5.93
2023-01-29T13:08:42.894Z,6.13
2023-01-29T13:11:17.858Z,5.70
2023-01-29T13:14:06.690Z,5.87
2023-01-29T13:16:48.403Z,5.87
2023-01-29T13:19:27.658Z,5.80
2023-01-29T13:22:07.084Z,6.20
2023-01-29T13:24:41.251Z,6.77
2023-01-29T13:27:36.991Z,6.20
2023-01-29T13:30:28.002Z,5.83
2023-01-29T13:33:17.798Z,5.20
2023-01-29T13:35:47.555Z,5.20
2023-01-29T13:38:26.309Z,6.00
2023-01-29T13:40:59.616Z,6.10
2023-01-29T13:43:29.779Z,9.13
2023-01-29T13:49:44.355Z,8.97
2023-01-29T13:52:27.022Z,5.07
2023-01-29T13:55:03.645Z,6.70
2023-01-29T13:57:57.011Z,4.57
2023-01-29T14:00:55.282Z,4.87
2023-01-29T14:04:10.699Z,5.60
2023-01-29T14:07:11.517Z,4.90
2023-01-29T14:10:26.727Z,5.73
2023-01-29T14:16:24.855Z,3.93
2023-01-29T14:19:00.009Z,4.73
2023-01-29T14:21:32.488Z,4.43
2023-01-29T14:30:10.555Z,5.30
2023-01-29T14:32:53.320Z,4.80
2023-01-29T14:35:40.518Z,5.23
2023-01-29T14:44:42.732Z,5.87
2023-01-29T14:50:19.286Z,6.40
2023-01-29T14:53:16.733Z,6.63
2023-01-29T14:55:49.608Z,6.20
2023-01-29T15:07:55.413Z,5.30
2023-01-29T15:23:05.961Z,6.07
2023-01-29T16:05:43.952Z,5.63
2023-01-29T16:08:18.105Z,4.93
2023-01-29T16:10:52.576Z,6.30
2023-01-29T16:13:31.958Z,5.53
2023-01-29T16:16:02.819Z,5.40
2023-01-29T16:18:36.332Z,6.37
2023-01-29T16:21:09.326Z,6.73
2023-01-29T16:23:47.677Z,5.63
2023-01-29T16:26:21.403Z,6.03
2023-01-29T16:29:14.146Z,5.07
2023-01-29T16:31:47.988Z,6.07
2023-01-29T16:37:23.593Z,5.60
2023-01-29T16:39:53.623Z,6.13
2023-01-29T16:42:24.768Z,6.00
2023-01-29T16:44:56.126Z,5.87
2023-01-29T16:47:29.555Z,6.20
2023-01-29T16:50:00.777Z,6.77
2023-01-29T16:52:30.698Z,5.87
2023-01-29T16:55:16.112Z,6.37
2023-01-29T16:57:54.270Z,7.80
2023-01-29T17:00:25.854Z,6.97
2023-01-29T17:02:58.529Z,5.40
2023-01-29T17:05:31.870Z,6.60
2023-01-29T17:08:15.175Z,10.60
2023-01-29T17:10:48.654Z,8.27
2023-01-29T17:13:33.031Z,5.67
2023-01-29T17:16:03.939Z,7.10
2023-01-29T17:18:32.590Z,8.07
2023-01-29T17:21:02.125Z,7.40
2023-01-29T17:23:30.472Z,9.33
2023-01-29T17:25:59.029Z,6.83
2023-01-29T17:28:27.673Z,7.50
2023-01-29T17:31:05.829Z,7.43
2023-01-29T17:33:35.409Z,7.70
2023-01-29T17:36:05.334Z,6.67
2023-01-29T17:38:33.946Z,7.00
2023-01-29T17:41:07.071Z,6.67
2023-01-29T17:43:35.933Z,6.57
2023-01-29T17:46:03.924Z,4.63
2023-01-29T17:48:33.332Z,6.10
2023-01-29T17:51:05.627Z,6.60
2023-01-29T17:53:45.638Z,6.53
2023-01-29T17:56:28.101Z,6.30
2023-01-29T17:58:56.566Z,7.13
2023-01-29T18:01:24.580Z,7.33
2023-01-29T18:03:52.667Z,6.70
2023-01-29T18:06:28.453Z,5.93
2023-01-29T18:08:57.566Z,6.43
2023-01-29T18:11:25.711Z,6.07
2023-01-29T18:13:54.707Z,6.67
2023-01-29T18:16:27.506Z,6.27
2023-01-29T18:18:55.757Z,5.70
2023-01-29T18:21:25.098Z,4.63
2023-01-29T18:23:53.320Z,6.40
2023-01-29T18:26:22.430Z,6.43
2023-01-29T18:28:51.361Z,6.73
2023-01-29T18:31:19.567Z,5.33
2023-01-29T18:33:48.076Z,6.27
2023-01-29T18:36:16.082Z,6.80
2023-01-29T18:38:45.459Z,6.70
2023-01-29T18:41:13.573Z,7.10
2023-01-29T18:43:43.136Z,5.57
2023-01-29T18:46:11.211Z,6.87
2023-01-29T18:48:40.967Z,7.03
2023-01-29T18:51:10.372Z,6.47
2023-01-29T18:53:38.433Z,5.13
2023-01-29T18:56:08.999Z,6.33
2023-01-29T18:58:55.381Z,7.17
2023-01-29T19:01:24.416Z,7.10
2023-01-29T19:03:52.410Z,5.70
2023-01-29T19:06:20.375Z,6.93
2023-01-29T19:08:49.083Z,6.67
2023-01-29T19:11:18.520Z,6.93
2023-01-29T19:13:47.996Z,4.73
2023-01-29T19:16:15.928Z,6.13
2023-01-29T19:18:44.031Z,6.10
2023-01-29T19:21:14.389Z,7.03
2023-01-29T19:23:43.263Z,5.33
2023-01-29T19:26:12.159Z,6.10
2023-01-29T19:28:41.901Z,7.03
2023-01-29T19:31:10.982Z,6.97
2023-01-29T19:33:40.120Z,7.53
2023-01-29T19:36:08.951Z,7.60
2023-01-29T19:38:38.915Z,7.93
2023-01-29T19:41:07.377Z,6.93
2023-01-29T19:43:35.567Z,7.03
2023-01-29T19:46:06.529Z,7.67
2023-01-29T19:48:34.655Z,6.53
2023-01-29T19:51:04.660Z,7.00
2023-01-29T19:53:32.653Z,6.93
2023-01-29T19:56:01.797Z,6.93
2023-01-29T19:58:30.726Z,5.93
2023-01-29T20:00:59.855Z,8.77
2023-01-29T20:03:30.393Z,8.07
2023-01-29T20:06:03.924Z,7.30
2023-01-29T20:08:32.337Z,8.37
2023-01-29T20:11:00.525Z,6.60
2023-01-29T20:13:29.113Z,6.93
2023-01-29T20:15:57.318Z,8.10
2023-01-29T20:18:25.497Z,7.20
2023-01-29T20:20:55.749Z,7.33
2023-01-29T20:23:37.243Z,8.13
2023-01-29T20:26:07.048Z,6.20
2023-01-29T20:28:36.261Z,7.07
2023-01-29T20:31:05.626Z,7.97
2023-01-29T20:33:34.858Z,9.10
2023-01-29T20:36:06.364Z,7.27
2023-01-29T20:38:34.873Z,6.50
2023-01-29T20:41:07.501Z,5.80
2023-01-29T20:43:36.303Z,9.73
2023-01-29T20:46:04.885Z,6.53
2023-01-29T20:48:33.623Z,6.23
2023-01-29T20:51:08.188Z,7.53
2023-01-29T20:53:36.639Z,6.87
2023-01-29T20:56:05.323Z,7.43
2023-01-29T20:58:33.631Z,7.10
2023-01-29T21:01:01.805Z,7.43
2023-01-29T21:03:29.923Z,7.30
2023-01-29T21:05:59.222Z,7.77
2023-01-29T21:08:28.715Z,6.30
2023-01-29T21:10:56.666Z,7.70
2023-01-29T21:13:24.741Z,7.50
2023-01-29T21:15:52.804Z,5.10
2023-01-29T21:18:21.063Z,8.27
2023-01-29T21:20:50.557Z,8.03
2023-01-29T21:23:18.643Z,8.00
2023-01-29T21:25:48.196Z,7.43
2023-01-29T21:28:17.486Z,6.33
2023-01-29T21:30:45.629Z,6.93
2023-01-29T21:33:13.653Z,6.27
2023-01-29T21:35:41.640Z,6.93
2023-01-29T21:38:09.692Z,6.07
2023-01-29T21:40:37.574Z,7.43
2023-01-29T21:43:11.990Z,6.80
2023-01-29T21:45:41.338Z,7.83
2023-01-29T21:48:10.236Z,9.10
2023-01-29T21:50:38.946Z,7.63
2023-01-29T21:53:07.027Z,8.40
2023-01-29T21:55:35.178Z,7.47
2023-01-29T21:58:04.421Z,7.33
2023-01-29T22:00:33.830Z,7.10
2023-01-29T22:03:01.995Z,6.63
2023-01-29T22:05:30.358Z,6.70
2023-01-29T22:07:58.321Z,5.83
2023-01-29T22:10:26.431Z,6.40
2023-01-29T22:12:54.673Z,5.60
2023-01-29T22:15:23.907Z,5.73
2023-01-29T22:17:53.555Z,6.80
2023-01-29T22:20:29.663Z,5.70
2023-01-29T22:22:59.506Z,6.53
2023-01-29T22:25:27.897Z,4.90
2023-01-29T22:27:56.111Z,6.80
2023-01-29T22:30:24.313Z,6.40
2023-01-29T22:32:53.812Z,6.30
2023-01-29T22:35:21.956Z,6.43
2023-01-29T22:37:50.087Z,7.23
2023-01-29T22:40:18.501Z,7.13
2023-01-29T22:42:46.839Z,6.77
2023-01-29T22:45:14.936Z,5.87
2023-01-29T22:47:42.953Z,6.67
2023-01-29T22:50:13.862Z,8.17
2023-01-29T22:52:43.434Z,7.47
2023-01-29T22:55:12.742Z,7.20
2023-01-29T22:57:41.229Z,7.43
2023-01-29T23:00:12.494Z,7.53
2023-01-29T23:02:40.483Z,8.13
2023-01-29T23:05:09.297Z,6.87
2023-01-29T23:07:38.560Z,7.57
2023-01-29T23:10:07.351Z,7.67
2023-01-29T23:12:35.347Z,5.60
2023-01-29T23:15:03.240Z,5.53
2023-01-29T23:17:31.217Z,7.17
2023-01-29T23:19:59.309Z,5.47
2023-01-29T23:22:27.169Z,5.90
2023-01-29T23:24:56.508Z,7.63
2023-01-29T23:27:23.471Z,5.60
2023-01-29T23:29:51.402Z,5.23
2023-01-29T23:32:21.526Z,4.00
2023-01-29T23:34:49.564Z,5.03
2023-01-29T23:37:17.547Z,5.10
2023-01-29T23:39:45.474Z,3.83
2023-01-29T23:42:15.031Z,4.43
2023-01-29T23:44:42.941Z,4.00
2023-01-29T23:47:11.170Z,4.60
2023-01-29T23:49:39.068Z,4.40
2023-01-29T23:52:07.804Z,5.17
2023-01-29T23:54:35.742Z,4.37
2023-01-29T23:57:03.611Z,4.87
2023-01-29T23:59:32.931Z,3.60
